Ana Sayfa
METAR-TAF:

METAR-TAF

Havaalanları :

Windham Airport

Willimantic, Connecticut, Amerika Birleşik Devletleri

Enlem: 41-44-31N, Boylam: 072-11-01W, yükseklik: 75 m

Güncel hava durumu gözlemi

Rapor saat 11:52 UTC de 28 dakika önce yapıldı.
Rüzgar kuzeydan 5 kt
Sıcaklık 19°C
Nem 64%
Basınç 1013 hPa
Görüş mesafesi: 16.1 km
Açık gökyüzü

METAR: KIJD 271152Z AUTO 35005KT 10SM CLR 19/12 A2992 RMK AO2 SLP130 T01940117 10200 20122 51016

Saat: 08:20 (12:20 UTC)


TAF: eksik

4.000'den fazla havaalanı için hava durumu gözlemleri ve tahminleri (METAR ve TAF raporları).

Kullanılabilir istasyonlar harita üzerinde sarı ve kırmızı noktalarla gösterilir.

İstasyonun adını görmek için fareyi noktanın üzerinde gezdirin.

Sonrasında hava gözlem ve tahminlerini görmek için tıklayın.

Haritayı değiştirmek için: yaklaştırmak için siyah artı işaretli yeşil düğmeye ve uzaklaştırmak için de eksi işaretli düğmeye hızla tıklayın; bitişik haritalar için yeşil okları kullanın.


METAR-TAF: